createdAt,value
2023-10-07T00:02:33.537Z,99332.72
2023-10-07T00:05:20.403Z,99337.22
2023-10-07T00:08:07.481Z,99340.78
2023-10-07T00:10:57.580Z,99343.53
2023-10-07T00:13:44.753Z,99335.69
2023-10-07T00:16:34.526Z,99328.78
2023-10-07T00:19:22.024Z,99332.19
2023-10-07T00:22:17.796Z,99330.50
2023-10-07T00:25:05.194Z,99336.69
2023-10-07T00:27:52.152Z,99332.38
2023-10-07T00:30:39.330Z,99345.56
2023-10-07T00:33:26.228Z,99341.22
2023-10-07T00:36:13.242Z,99335.94
2023-10-07T00:39:00.076Z,99336.88
2023-10-07T00:41:47.960Z,99335.09
2023-10-07T00:44:38.066Z,99343.00
2023-10-07T00:47:06.061Z,99331.69
2023-10-07T00:49:50.405Z,99336.94
2023-10-07T00:52:50.859Z,99329.13
2023-10-07T00:55:40.674Z,99329.13
2023-10-07T00:58:31.177Z,99328.56
2023-10-07T01:01:18.157Z,99331.03
2023-10-07T01:04:11.182Z,99327.78
2023-10-07T01:06:58.214Z,99333.84
2023-10-07T01:09:45.250Z,99347.03
2023-10-07T01:12:35.607Z,99355.03
2023-10-07T01:15:24.033Z,99337.47
2023-10-07T01:18:15.299Z,99341.88
2023-10-07T01:20:54.275Z,99336.69
2023-10-07T01:23:44.150Z,99334.06
2023-10-07T01:26:37.499Z,99334.16
2023-10-07T01:29:27.170Z,99331.69
2023-10-07T01:32:23.188Z,99337.81
2023-10-07T01:35:10.321Z,99331.69
2023-10-07T01:38:06.350Z,99338.75
2023-10-07T01:40:53.800Z,99308.63
2023-10-07T01:43:40.893Z,99323.03
2023-10-07T01:46:27.929Z,99330.94
2023-10-07T01:49:33.376Z,99324.88
2023-10-07T01:52:20.485Z,99307.03
2023-10-07T01:55:07.424Z,99320.72
2023-10-07T01:57:54.419Z,99324.09
2023-10-07T02:00:41.684Z,99326.66
2023-10-07T02:03:28.915Z,99322.34
2023-10-07T02:06:16.234Z,99299.47
2023-10-07T02:09:03.242Z,99325.84
2023-10-07T02:11:50.275Z,99326.66
2023-10-07T02:14:37.302Z,99317.41
2023-10-07T02:17:25.058Z,99331.03
2023-10-07T02:20:12.258Z,99331.09
2023-10-07T02:23:19.021Z,99338.06
2023-10-07T02:26:06.153Z,99343.34
2023-10-07T02:28:56.381Z,99330.25
2023-10-07T02:31:45.183Z,99334.50
2023-10-07T02:34:32.184Z,99346.84
2023-10-07T02:37:19.405Z,99348.63
2023-10-07T02:40:09.097Z,99329.38
2023-10-07T02:42:56.315Z,99334.75
2023-10-07T02:45:43.137Z,99336.28
2023-10-07T02:48:30.301Z,99332.88
2023-10-07T02:51:17.253Z,99334.50
2023-10-07T02:54:04.318Z,99334.50
2023-10-07T02:56:51.213Z,99334.50
2023-10-07T02:59:43.985Z,99333.06
2023-10-07T03:02:33.778Z,99340.72
2023-10-07T03:05:13.210Z,99331.84
2023-10-07T03:08:04.866Z,99338.94
2023-10-07T03:10:52.455Z,99333.84
2023-10-07T03:13:39.387Z,99338.84
2023-10-07T03:16:30.521Z,99337.03
2023-10-07T03:19:17.733Z,99341.41
2023-10-07T03:22:19.806Z,99345.81
2023-10-07T03:25:06.690Z,99350.13
2023-10-07T03:27:53.934Z,99332.38
2023-10-07T03:30:40.865Z,99349.22
2023-10-07T03:33:27.955Z,99341.56
2023-10-07T03:35:57.709Z,99353.81
2023-10-07T03:38:48.202Z,99359.69
2023-10-07T03:41:35.172Z,99364.03
2023-10-07T03:44:25.081Z,99355.66
2023-10-07T03:47:16.185Z,99377.28
2023-10-07T03:50:03.602Z,99369.81
2023-10-07T03:52:50.614Z,99396.63
2023-10-07T03:55:37.658Z,99391.34
2023-10-07T03:58:24.717Z,99387.75
2023-10-07T04:01:11.731Z,99388.72
2023-10-07T04:04:00.271Z,99377.63
2023-10-07T04:06:54.149Z,99390.47
2023-10-07T04:09:40.982Z,99397.53
2023-10-07T04:12:28.065Z,99395.94
2023-10-07T04:15:14.995Z,99403.66
2023-10-07T04:18:02.070Z,99400.25
2023-10-07T04:20:49.381Z,99415.16
2023-10-07T04:23:42.819Z,99402.16
2023-10-07T04:26:29.640Z,99407.34
2023-10-07T04:29:16.793Z,99406.47
2023-10-07T04:32:13.813Z,99407.41
2023-10-07T04:35:00.966Z,99406.66
2023-10-07T04:37:47.958Z,99406.66
2023-10-07T04:40:36.505Z,99422.56
2023-10-07T04:43:09.594Z,99417.34
2023-10-07T04:46:01.007Z,99423.56
2023-10-07T04:49:03.106Z,99425.44
2023-10-07T04:51:33.465Z,99431.66
2023-10-07T04:54:23.342Z,99433.69
2023-10-07T04:57:10.577Z,99435.53
2023-10-07T04:59:58.266Z,99455.56
2023-10-07T05:02:45.445Z,99463.63
2023-10-07T05:05:32.312Z,99441.66
2023-10-07T05:08:20.046Z,99445.34
2023-10-07T05:11:13.902Z,99440.69
2023-10-07T05:14:01.102Z,99446.09
2023-10-07T05:16:48.565Z,99456.16
2023-10-07T05:19:42.605Z,99460.63
2023-10-07T05:22:35.534Z,99462.56
2023-10-07T05:25:22.634Z,99478.38
2023-10-07T05:28:09.692Z,99481.25
2023-10-07T05:30:56.666Z,99486.59
2023-10-07T05:33:45.925Z,99497.22
2023-10-07T05:36:33.787Z,99496.50
2023-10-07T05:39:20.729Z,99499.31
2023-10-07T05:42:07.802Z,99431.06
2023-10-07T05:44:58.240Z,99500.41
2023-10-07T05:47:45.340Z,99501.50
2023-10-07T05:50:33.095Z,99506.94
2023-10-07T05:53:20.626Z,99505.28
2023-10-07T05:56:07.598Z,99482.56
2023-10-07T05:58:55.569Z,99514.38
2023-10-07T06:01:42.756Z,99503.03
2023-10-07T06:04:30.401Z,99517.22
2023-10-07T06:07:17.483Z,99510.31
2023-10-07T06:10:04.522Z,99525.38
2023-10-07T06:12:51.562Z,99522.81
2023-10-07T06:15:38.655Z,99518.53
2023-10-07T06:18:26.502Z,99522.16
2023-10-07T06:21:14.320Z,99530.16
2023-10-07T06:24:01.889Z,99537.34
2023-10-07T06:26:48.856Z,99547.13
2023-10-07T06:29:36.969Z,99543.63
2023-10-07T06:32:24.629Z,99539.03
2023-10-07T06:35:14.841Z,99551.81
2023-10-07T06:38:02.785Z,99555.44
2023-10-07T06:40:49.863Z,99559.09
2023-10-07T06:43:37.079Z,99560.03
2023-10-07T06:46:24.172Z,99552.34
2023-10-07T06:49:11.264Z,99546.66
2023-10-07T06:51:58.385Z,99561.16
2023-10-07T06:54:56.725Z,99571.81
2023-10-07T06:57:52.736Z,99573.63
2023-10-07T07:00:46.188Z,99575.53
2023-10-07T07:03:33.211Z,99580.72
2023-10-07T07:06:20.226Z,99583.38
2023-10-07T07:09:07.210Z,99585.28
2023-10-07T07:11:54.325Z,99591.28
2023-10-07T07:14:41.213Z,99591.28
2023-10-07T07:17:40.550Z,99589.50
2023-10-07T07:20:12.340Z,99590.41
2023-10-07T07:23:04.695Z,99587.63
2023-10-07T07:25:51.848Z,99596.31
2023-10-07T07:28:38.903Z,99573.13
2023-10-07T07:31:26.000Z,99606.69
2023-10-07T07:34:13.045Z,99605.75
2023-10-07T07:36:59.954Z,99614.47
2023-10-07T07:39:46.933Z,99616.94
2023-10-07T07:42:21.037Z,99594.69
2023-10-07T07:45:07.981Z,99626.41
2023-10-07T07:47:55.055Z,99608.53
2023-10-07T07:50:42.960Z,99647.28
2023-10-07T07:53:29.964Z,99642.69
2023-10-07T07:56:17.354Z,99652.34
2023-10-07T07:58:49.901Z,99640.72
2023-10-07T08:01:30.332Z,99632.97
2023-10-07T08:04:00.901Z,99651.03
2023-10-07T08:06:48.060Z,99652.56
2023-10-07T08:09:35.370Z,99652.50
2023-10-07T08:12:22.392Z,99662.91
2023-10-07T08:15:09.448Z,99658.34
2023-10-07T08:17:56.783Z,99663.53
2023-10-07T08:20:57.408Z,99657.41
2023-10-07T08:23:45.412Z,99670.25
2023-10-07T08:26:32.461Z,99668.28
2023-10-07T08:28:59.568Z,99680.41
2023-10-07T08:32:00.440Z,99676.75
2023-10-07T08:34:50.353Z,99649.25
2023-10-07T08:37:37.427Z,99692.22
2023-10-07T08:40:30.419Z,99699.09
2023-10-07T08:43:21.375Z,99688.41
2023-10-07T08:46:08.428Z,99703.97
2023-10-07T08:48:56.956Z,99712.56
2023-10-07T08:51:44.843Z,99718.47
2023-10-07T08:54:41.422Z,99714.75
2023-10-07T08:57:32.078Z,99711.03
2023-10-07T09:00:19.138Z,99740.88
2023-10-07T09:03:06.891Z,99738.75
2023-10-07T09:05:54.034Z,99725.00
2023-10-07T09:08:41.002Z,99749.56
2023-10-07T09:11:28.995Z,99755.47
2023-10-07T09:14:16.053Z,99735.75
2023-10-07T09:17:03.258Z,99750.41
2023-10-07T09:19:50.379Z,99744.75
2023-10-07T09:22:37.439Z,99769.91
2023-10-07T09:25:40.085Z,99756.56
2023-10-07T09:28:27.450Z,99772.56
2023-10-07T09:31:14.523Z,99781.78
2023-10-07T09:34:01.627Z,99768.97
2023-10-07T09:36:28.688Z,99774.47
2023-10-07T09:39:13.820Z,99733.84
2023-10-07T09:42:01.219Z,99782.63
2023-10-07T09:44:48.344Z,99783.47
2023-10-07T09:47:35.494Z,99802.88
2023-10-07T09:50:22.656Z,99788.84
2023-10-07T09:53:18.851Z,99805.47
2023-10-07T09:56:26.952Z,99801.03
2023-10-07T09:59:35.432Z,99798.28
2023-10-07T10:02:40.754Z,99807.56
2023-10-07T10:06:03.782Z,99805.00
2023-10-07T10:08:56.970Z,99802.25
2023-10-07T10:11:40.118Z,99813.72
2023-10-07T10:14:18.441Z,99808.44
2023-10-07T10:17:10.199Z,99804.16
2023-10-07T10:20:10.625Z,99807.59
2023-10-07T10:22:57.806Z,99799.44
2023-10-07T10:25:35.391Z,99810.91
2023-10-07T10:28:25.318Z,99772.44
2023-10-07T10:31:12.606Z,99809.28
2023-10-07T10:33:59.579Z,99800.13
2023-10-07T10:36:46.520Z,99795.88
2023-10-07T10:39:44.545Z,99800.53
2023-10-07T10:42:31.893Z,99808.91
2023-10-07T10:45:18.828Z,99762.88
2023-10-07T10:48:14.738Z,99813.97
2023-10-07T10:51:01.873Z,99826.78
2023-10-07T10:53:50.000Z,99827.00
2023-10-07T10:56:37.257Z,99831.41
2023-10-07T10:59:24.149Z,99841.03
2023-10-07T11:02:11.431Z,99832.22
2023-10-07T11:04:58.942Z,99844.38
2023-10-07T11:07:46.372Z,99844.53
2023-10-07T11:10:33.671Z,99835.94
2023-10-07T11:13:24.444Z,99833.50
2023-10-07T11:16:21.302Z,99847.59
2023-10-07T11:19:08.369Z,99843.72
2023-10-07T11:22:00.543Z,99872.13
2023-10-07T11:24:50.501Z,99868.00
2023-10-07T11:27:38.315Z,99870.44
2023-10-07T11:30:25.843Z,99860.97
2023-10-07T11:33:13.145Z,99873.59
2023-10-07T11:36:00.314Z,99863.16
2023-10-07T11:38:27.959Z,99875.41
2023-10-07T11:40:57.089Z,99882.94
2023-10-07T11:43:24.479Z,99890.34
2023-10-07T11:45:51.689Z,99902.72
2023-10-07T11:48:38.793Z,99893.38
2023-10-07T11:51:25.619Z,99898.34
2023-10-07T11:54:12.609Z,99890.81
2023-10-07T11:57:01.002Z,99899.06
2023-10-07T11:59:48.066Z,99903.19
2023-10-07T12:02:35.128Z,99898.78
2023-10-07T12:05:22.289Z,99903.63
2023-10-07T12:08:09.373Z,99907.09
2023-10-07T12:10:56.551Z,99918.00
2023-10-07T12:13:43.606Z,99913.00
2023-10-07T12:16:30.654Z,99925.63
2023-10-07T12:19:17.622Z,99917.19
2023-10-07T12:22:06.401Z,99919.63
2023-10-07T12:24:56.630Z,99924.72
2023-10-07T12:27:43.597Z,99926.28
2023-10-07T12:30:31.755Z,99929.56
2023-10-07T12:33:33.208Z,99935.78
2023-10-07T12:36:30.596Z,99931.97
2023-10-07T12:39:17.765Z,99926.63
2023-10-07T12:42:05.084Z,99915.00
2023-10-07T12:44:52.137Z,99928.00
2023-10-07T12:47:39.317Z,99947.13
2023-10-07T12:50:42.009Z,99945.53
2023-10-07T12:53:28.930Z,99950.19
2023-10-07T12:56:16.101Z,99941.09
2023-10-07T12:59:03.128Z,99949.72
2023-10-07T13:01:50.265Z,99948.53
2023-10-07T13:04:40.928Z,99947.09
2023-10-07T13:07:30.961Z,99971.69
2023-10-07T13:10:17.802Z,99945.81
2023-10-07T13:13:05.338Z,99944.84
2023-10-07T13:15:52.656Z,99950.38
2023-10-07T13:18:39.958Z,99959.03
2023-10-07T13:21:29.543Z,99953.53
2023-10-07T13:24:20.687Z,99963.00
2023-10-07T13:27:07.553Z,99962.88
2023-10-07T13:29:54.783Z,99965.00
2023-10-07T13:32:41.715Z,99966.75
2023-10-07T13:35:29.475Z,99973.06
2023-10-07T13:38:19.290Z,99969.53
2023-10-07T13:41:06.458Z,99981.88
2023-10-07T13:43:55.981Z,99975.53
2023-10-07T13:46:43.154Z,99985.91
2023-10-07T13:49:34.067Z,99989.00
2023-10-07T13:52:21.179Z,99976.84
2023-10-07T13:55:10.903Z,99973.34
2023-10-07T13:57:58.042Z,99957.56
2023-10-07T14:00:56.967Z,99993.34
2023-10-07T14:03:44.485Z,99989.22
2023-10-07T14:06:31.474Z,99996.53
2023-10-07T14:09:18.589Z,99996.84
2023-10-07T14:12:05.518Z,99995.84
2023-10-07T14:14:52.559Z,100011.81
2023-10-07T14:17:41.050Z,99998.72
2023-10-07T14:20:30.854Z,100014.38
2023-10-07T14:23:17.930Z,100013.44
2023-10-07T14:26:04.922Z,100004.50
2023-10-07T14:28:52.025Z,100025.38
2023-10-07T14:31:39.039Z,100025.19
2023-10-07T14:34:25.950Z,100032.69
2023-10-07T14:37:13.099Z,100045.66
2023-10-07T14:40:00.255Z,100045.44
2023-10-07T14:42:47.284Z,100037.25
2023-10-07T14:45:34.232Z,100052.59
2023-10-07T14:48:22.236Z,100040.72
2023-10-07T14:51:09.706Z,100050.91
2023-10-07T14:53:57.375Z,100052.25
2023-10-07T14:56:44.290Z,100052.03
2023-10-07T14:59:31.351Z,100061.94
2023-10-07T15:02:18.357Z,100071.22
2023-10-07T15:05:05.516Z,100061.84
2023-10-07T15:07:53.159Z,100070.25
2023-10-07T15:10:42.223Z,100073.22
2023-10-07T15:13:29.309Z,100061.28
2023-10-07T15:16:16.290Z,100062.44
2023-10-07T15:19:05.636Z,100079.63
2023-10-07T15:21:52.621Z,100072.09
2023-10-07T15:24:39.627Z,100062.06
2023-10-07T15:27:26.584Z,100079.72
2023-10-07T15:30:13.500Z,100084.50
2023-10-07T15:33:00.516Z,100091.81
2023-10-07T15:35:47.452Z,100095.66
2023-10-07T15:38:35.354Z,100096.84
2023-10-07T15:41:22.466Z,100098.84
2023-10-07T15:44:09.743Z,100064.16
2023-10-07T15:46:56.618Z,100099.41
2023-10-07T15:49:44.015Z,100100.66
2023-10-07T15:52:30.975Z,100097.47
2023-10-07T15:55:18.197Z,100097.72
2023-10-07T15:58:05.246Z,100107.66
2023-10-07T16:00:55.332Z,100081.25
2023-10-07T16:03:42.647Z,100097.69
2023-10-07T16:06:30.241Z,100107.47
2023-10-07T16:09:17.165Z,100107.72
2023-10-07T16:12:07.160Z,100111.47
2023-10-07T16:14:54.156Z,100117.88
2023-10-07T16:17:41.564Z,100125.13
2023-10-07T16:20:29.390Z,100119.38
2023-10-07T16:23:21.519Z,100096.50
2023-10-07T16:26:09.559Z,100134.69
2023-10-07T16:28:57.924Z,100132.19
2023-10-07T16:31:44.820Z,100139.41
2023-10-07T16:34:31.919Z,100139.63
2023-10-07T16:37:18.799Z,100146.84
2023-10-07T16:40:06.110Z,100087.78
2023-10-07T16:42:53.084Z,100100.09
2023-10-07T16:45:40.023Z,100153.56
2023-10-07T16:48:27.259Z,100162.50
2023-10-07T16:51:18.397Z,100154.06
2023-10-07T16:54:05.390Z,100125.78
2023-10-07T16:56:52.918Z,100157.78
2023-10-07T16:59:40.263Z,100164.09
2023-10-07T17:02:27.607Z,100161.69
2023-10-07T17:05:14.698Z,100166.19
2023-10-07T17:08:01.783Z,100172.44
2023-10-07T17:10:48.858Z,100169.03
2023-10-07T17:13:36.262Z,100181.59
2023-10-07T17:16:23.423Z,100175.56
2023-10-07T17:19:10.699Z,100183.63
2023-10-07T17:21:58.546Z,100184.63
2023-10-07T17:24:45.543Z,100192.63
2023-10-07T17:27:32.475Z,100196.25
2023-10-07T17:30:19.559Z,100194.59
2023-10-07T17:33:07.208Z,100191.22
2023-10-07T17:35:58.088Z,100192.16
2023-10-07T17:38:45.098Z,100183.66
2023-10-07T17:41:32.158Z,100190.59
2023-10-07T17:44:19.287Z,100185.38
2023-10-07T17:47:06.414Z,100186.34
2023-10-07T17:49:53.527Z,100181.28
2023-10-07T17:52:40.781Z,100195.34
2023-10-07T17:55:27.968Z,100191.91
2023-10-07T17:58:15.118Z,100198.13
2023-10-07T18:01:02.219Z,100195.59
2023-10-07T18:03:49.507Z,100196.50
2023-10-07T18:06:36.641Z,100184.44
2023-10-07T18:09:23.593Z,100194.00
2023-10-07T18:12:10.703Z,100202.00
2023-10-07T18:14:57.820Z,100209.13
2023-10-07T18:17:44.906Z,100213.53
2023-10-07T18:20:35.152Z,100209.25
2023-10-07T18:23:22.191Z,100200.00
2023-10-07T18:26:14.985Z,100212.03
2023-10-07T18:29:19.618Z,100208.59
2023-10-07T18:32:11.594Z,100207.91
2023-10-07T18:35:35.721Z,100193.34
2023-10-07T18:38:29.216Z,100212.41
2023-10-07T18:41:16.288Z,100226.44
2023-10-07T18:44:03.732Z,100221.38
2023-10-07T18:46:50.862Z,100227.56
2023-10-07T18:49:37.905Z,100235.63
2023-10-07T18:52:24.995Z,100241.72
2023-10-07T18:55:12.254Z,100242.66
2023-10-07T18:57:59.764Z,100233.88
2023-10-07T19:00:46.817Z,100238.38
2023-10-07T19:03:34.121Z,100246.34
2023-10-07T19:06:21.140Z,100235.19
2023-10-07T19:09:08.226Z,100242.91
2023-10-07T19:11:55.887Z,100238.63
2023-10-07T19:14:42.893Z,100245.63
2023-10-07T19:17:29.994Z,100256.22
2023-10-07T19:20:17.282Z,100255.41
2023-10-07T19:23:04.253Z,100263.34
2023-10-07T19:25:51.301Z,100262.56
2023-10-07T19:28:38.152Z,100261.69
2023-10-07T19:31:31.567Z,100260.16
2023-10-07T19:34:18.521Z,100265.31
2023-10-07T19:37:05.684Z,100260.94
2023-10-07T19:39:52.501Z,100275.94
2023-10-07T19:42:39.639Z,100276.06
2023-10-07T19:45:27.309Z,100277.81
2023-10-07T19:48:14.471Z,100284.88
2023-10-07T19:51:01.386Z,100289.31
2023-10-07T19:53:48.568Z,100297.28
2023-10-07T19:56:35.561Z,100293.81
2023-10-07T19:59:22.691Z,100303.50
2023-10-07T20:02:09.784Z,100300.94
2023-10-07T20:04:57.312Z,100306.25
2023-10-07T20:07:44.299Z,100310.72
2023-10-07T20:10:31.572Z,100308.16
2023-10-07T20:13:18.897Z,100307.38
2023-10-07T20:16:05.982Z,100308.31
2023-10-07T20:18:53.093Z,100320.63
2023-10-07T20:21:40.052Z,100310.31
2023-10-07T20:24:27.464Z,100314.59
2023-10-07T20:27:14.579Z,100319.00
2023-10-07T20:30:02.275Z,100316.41
2023-10-07T20:32:51.117Z,100327.00
2023-10-07T20:35:38.255Z,100329.66
2023-10-07T20:38:25.416Z,100334.16
2023-10-07T20:41:17.483Z,100329.00
2023-10-07T20:44:04.546Z,100342.16
2023-10-07T20:46:51.764Z,100347.50
2023-10-07T20:49:38.662Z,100347.56
2023-10-07T20:52:26.970Z,100356.38
2023-10-07T20:55:14.024Z,100359.00
2023-10-07T20:58:01.003Z,100364.31
2023-10-07T21:00:48.015Z,100363.50
2023-10-07T21:03:35.120Z,100370.59
2023-10-07T21:06:22.154Z,100365.47
2023-10-07T21:09:11.540Z,100376.84
2023-10-07T21:11:58.927Z,100372.50
2023-10-07T21:14:46.022Z,100382.13
2023-10-07T21:17:33.065Z,100358.06
2023-10-07T21:20:20.287Z,100375.44
2023-10-07T21:23:07.437Z,100384.94
2023-10-07T21:26:05.643Z,100373.78
2023-10-07T21:28:52.746Z,100393.00
2023-10-07T21:31:40.123Z,100394.75
2023-10-07T21:34:27.030Z,100398.28
2023-10-07T21:37:13.966Z,100393.94
2023-10-07T21:40:00.852Z,100394.84
2023-10-07T21:42:47.843Z,100404.59
2023-10-07T21:45:34.848Z,100408.09
2023-10-07T21:48:21.907Z,100405.50
2023-10-07T21:51:08.963Z,100410.78
2023-10-07T21:53:56.507Z,100416.09
2023-10-07T21:56:43.580Z,100417.91
2023-10-07T21:59:30.605Z,100416.16
2023-10-07T22:02:17.614Z,100421.47
2023-10-07T22:05:04.758Z,100427.63
2023-10-07T22:07:51.860Z,100433.84
2023-10-07T22:10:47.458Z,100432.13
2023-10-07T22:13:34.634Z,100423.34
2023-10-07T22:16:21.685Z,100443.56
2023-10-07T22:19:08.793Z,100443.63
2023-10-07T22:21:55.876Z,100439.28
2023-10-07T22:24:42.871Z,100439.31
2023-10-07T22:27:29.852Z,100443.72
2023-10-07T22:30:16.689Z,100431.53
2023-10-07T22:33:07.196Z,100429.72
2023-10-07T22:35:56.651Z,100430.66
2023-10-07T22:38:43.840Z,100442.94
2023-10-07T22:41:30.841Z,100439.47
2023-10-07T22:44:18.039Z,100391.59
2023-10-07T22:47:05.031Z,100460.59
2023-10-07T22:49:52.167Z,100460.66
2023-10-07T22:52:39.191Z,100452.97
2023-10-07T22:55:29.397Z,100464.22
2023-10-07T22:58:16.750Z,100466.91
2023-10-07T23:01:06.954Z,100473.13
2023-10-07T23:03:56.726Z,100469.56
2023-10-07T23:06:52.937Z,100474.03
2023-10-07T23:09:39.883Z,100465.56
2023-10-07T23:12:36.760Z,100427.13
2023-10-07T23:15:23.888Z,100486.44
2023-10-07T23:18:11.007Z,100482.94
2023-10-07T23:21:03.824Z,100488.34
2023-10-07T23:23:50.813Z,100497.94
2023-10-07T23:26:37.846Z,100504.09
2023-10-07T23:29:27.836Z,100504.19
2023-10-07T23:32:16.682Z,100499.84
2023-10-07T23:35:03.702Z,100510.38
2023-10-07T23:37:50.651Z,100510.44
2023-10-07T23:40:37.611Z,100512.25
2023-10-07T23:43:26.304Z,100533.38
2023-10-07T23:46:13.309Z,100533.41
2023-10-07T23:49:00.444Z,100536.09
2023-10-07T23:51:47.685Z,100537.88
2023-10-07T23:54:34.698Z,100539.69
2023-10-07T23:57:21.583Z,100542.47
